sensor_id;sensor_type;location;lat;lon;timestamp;pressure;altitude;pressure_sealevel;temperature;humidity
59103;BME280;43999;51.660;5.616;2023-03-15T00:01:25;100992.97;;;0.75;100.00
59103;BME280;43999;51.660;5.616;2023-03-15T00:03:54;100981.81;;;0.73;100.00
59103;BME280;43999;51.660;5.616;2023-03-15T00:06:23;100971.56;;;0.67;100.00
59103;BME280;43999;51.660;5.616;2023-03-15T00:08:51;100969.84;;;0.66;100.00
59103;BME280;43999;51.660;5.616;2023-03-15T00:11:20;100974.16;;;0.67;100.00
59103;BME280;43999;51.660;5.616;2023-03-15T00:13:49;100975.81;;;0.69;100.00
59103;BME280;43999;51.660;5.616;2023-03-15T00:16:19;100980.09;;;0.74;100.00
59103;BME280;43999;51.660;5.616;2023-03-15T00:18:48;100985.19;;;0.78;100.00
59103;BME280;43999;51.660;5.616;2023-03-15T00:21:17;100980.84;;;0.82;100.00
59103;BME280;43999;51.660;5.616;2023-03-15T00:23:52;100979.13;;;0.85;100.00
59103;BME280;43999;51.660;5.616;2023-03-15T00:26:20;100990.25;;;0.87;100.00
59103;BME280;43999;51.660;5.616;2023-03-15T00:28:49;100982.47;;;0.91;100.00
59103;BME280;43999;51.660;5.616;2023-03-15T00:31:22;100987.66;;;0.91;100.00
59103;BME280;43999;51.660;5.616;2023-03-15T00:33:51;100986.72;;;0.96;100.00
59103;BME280;43999;51.660;5.616;2023-03-15T00:36:22;100982.44;;;0.95;100.00
59103;BME280;43999;51.660;5.616;2023-03-15T00:38:54;100976.34;;;1.01;100.00
59103;BME280;43999;51.660;5.616;2023-03-15T00:41:24;100979.75;;;1.03;100.00
59103;BME280;43999;51.660;5.616;2023-03-15T00:43:55;100983.16;;;1.05;100.00
59103;BME280;43999;51.660;5.616;2023-03-15T00:46:24;100992.63;;;1.06;100.00
59103;BME280;43999;51.660;5.616;2023-03-15T00:48:58;100995.22;;;1.06;100.00
59103;BME280;43999;51.660;5.616;2023-03-15T00:51:29;100995.16;;;1.11;100.00
59103;BME280;43999;51.660;5.616;2023-03-15T00:53:58;100993.38;;;1.14;100.00
59103;BME280;43999;51.660;5.616;2023-03-15T00:56:28;101011.38;;;1.19;100.00
59103;BME280;43999;51.660;5.616;2023-03-15T00:59:05;101006.16;;;1.23;100.00
59103;BME280;43999;51.660;5.616;2023-03-15T01:01:33;101011.31;;;1.25;100.00
59103;BME280;43999;51.660;5.616;2023-03-15T01:04:03;101018.94;;;1.34;100.00
59103;BME280;43999;51.660;5.616;2023-03-15T01:06:38;101027.44;;;1.42;100.00
59103;BME280;43999;51.660;5.616;2023-03-15T01:09:10;101036.06;;;1.41;100.00
59103;BME280;43999;51.660;5.616;2023-03-15T01:11:38;101042.94;;;1.41;100.00
59103;BME280;43999;51.660;5.616;2023-03-15T01:14:05;101045.59;;;1.36;100.00
59103;BME280;43999;51.660;5.616;2023-03-15T01:16:38;101051.72;;;1.29;100.00
59103;BME280;43999;51.660;5.616;2023-03-15T01:19:13;101052.66;;;1.20;100.00
59103;BME280;43999;51.660;5.616;2023-03-15T01:21:41;101044.16;;;1.12;100.00
59103;BME280;43999;51.660;5.616;2023-03-15T01:24:13;101056.25;;;1.09;100.00
59103;BME280;43999;51.660;5.616;2023-03-15T01:26:44;101062.31;;;1.06;100.00
59103;BME280;43999;51.660;5.616;2023-03-15T01:29:34;101061.50;;;1.01;100.00
59103;BME280;43999;51.660;5.616;2023-03-15T01:32:04;101078.78;;;0.93;100.00
59103;BME280;43999;51.660;5.616;2023-03-15T01:34:33;101066.84;;;0.82;100.00
59103;BME280;43999;51.660;5.616;2023-03-15T01:37:11;101061.78;;;0.73;100.00
59103;BME280;43999;51.660;5.616;2023-03-15T01:39:44;101067.84;;;0.67;100.00
59103;BME280;43999;51.660;5.616;2023-03-15T01:42:11;101079.09;;;0.59;100.00
59103;BME280;43999;51.660;5.616;2023-03-15T01:44:56;101068.81;;;0.52;100.00
59103;BME280;43999;51.660;5.616;2023-03-15T01:47:28;101079.16;;;0.51;100.00
59103;BME280;43999;51.660;5.616;2023-03-15T01:50:08;101077.47;;;0.48;100.00
59103;BME280;43999;51.660;5.616;2023-03-15T01:52:39;101079.22;;;0.45;100.00
59103;BME280;43999;51.660;5.616;2023-03-15T01:55:18;101076.63;;;0.46;100.00
59103;BME280;43999;51.660;5.616;2023-03-15T01:57:58;101070.63;;;0.46;100.00
59103;BME280;43999;51.660;5.616;2023-03-15T02:00:30;101071.47;;;0.46;100.00
59103;BME280;43999;51.660;5.616;2023-03-15T02:03:13;101070.63;;;0.44;100.00
59103;BME280;43999;51.660;5.616;2023-03-15T02:06:09;101073.22;;;0.44;100.00
59103;BME280;43999;51.660;5.616;2023-03-15T02:08:58;101070.63;;;0.46;100.00
59103;BME280;43999;51.660;5.616;2023-03-15T02:11:33;101074.06;;;0.45;100.00
59103;BME280;43999;51.660;5.616;2023-03-15T02:14:04;101070.59;;;0.47;100.00
59103;BME280;43999;51.660;5.616;2023-03-15T02:16:36;101070.59;;;0.47;100.00
59103;BME280;43999;51.660;5.616;2023-03-15T02:19:16;101072.34;;;0.47;100.00
59103;BME280;43999;51.660;5.616;2023-03-15T02:22:49;101077.50;;;0.47;100.00
59103;BME280;43999;51.660;5.616;2023-03-15T02:28:01;101083.47;;;0.49;100.00
59103;BME280;43999;51.660;5.616;2023-03-15T02:30:33;101073.19;;;0.47;100.00
59103;BME280;43999;51.660;5.616;2023-03-15T02:33:06;101072.34;;;0.47;100.00
59103;BME280;43999;51.660;5.616;2023-03-15T02:35:38;101080.06;;;0.48;100.00
59103;BME280;43999;51.660;5.616;2023-03-15T02:38:06;101078.31;;;0.49;100.00
59103;BME280;43999;51.660;5.616;2023-03-15T02:40:33;101074.88;;;0.53;100.00
59103;BME280;43999;51.660;5.616;2023-03-15T02:43:08;101080.84;;;0.55;100.00
59103;BME280;43999;51.660;5.616;2023-03-15T02:45:38;101079.97;;;0.58;100.00
59103;BME280;43999;51.660;5.616;2023-03-15T02:48:08;101092.84;;;0.61;100.00
59103;BME280;43999;51.660;5.616;2023-03-15T02:50:40;101088.53;;;0.63;100.00
59103;BME280;43999;51.660;5.616;2023-03-15T02:53:08;101093.66;;;0.64;100.00
59103;BME280;43999;51.660;5.616;2023-03-15T02:55:36;101092.81;;;0.65;100.00
59103;BME280;43999;51.660;5.616;2023-03-15T02:58:06;101091.06;;;0.66;100.00
59103;BME280;43999;51.660;5.616;2023-03-15T03:00:33;101097.94;;;0.68;100.00
59103;BME280;43999;51.660;5.616;2023-03-15T03:03:01;101098.78;;;0.70;100.00
59103;BME280;43999;51.660;5.616;2023-03-15T03:05:31;101106.50;;;0.70;100.00
59103;BME280;43999;51.660;5.616;2023-03-15T03:07:59;101101.34;;;0.72;100.00
59103;BME280;43999;51.660;5.616;2023-03-15T03:10:30;101110.78;;;0.75;100.00
59103;BME280;43999;51.660;5.616;2023-03-15T03:13:01;101121.09;;;0.76;100.00
59103;BME280;43999;51.660;5.616;2023-03-15T03:15:33;101128.81;;;0.79;100.00
59103;BME280;43999;51.660;5.616;2023-03-15T03:18:01;101132.25;;;0.78;100.00
59103;BME280;43999;51.660;5.616;2023-03-15T03:20:29;101131.38;;;0.79;100.00
59103;BME280;43999;51.660;5.616;2023-03-15T03:22:57;101132.22;;;0.80;100.00
59103;BME280;43999;51.660;5.616;2023-03-15T03:25:25;101143.38;;;0.80;100.00
59103;BME280;43999;51.660;5.616;2023-03-15T03:27:55;101148.53;;;0.80;100.00
59103;BME280;43999;51.660;5.616;2023-03-15T03:30:29;101158.03;;;0.78;100.00
59103;BME280;43999;51.660;5.616;2023-03-15T03:32:57;101156.31;;;0.76;100.00
59103;BME280;43999;51.660;5.616;2023-03-15T03:35:25;101153.78;;;0.71;100.00
59103;BME280;43999;51.660;5.616;2023-03-15T03:37:54;101161.56;;;0.66;100.00
59103;BME280;43999;51.660;5.616;2023-03-15T03:40:29;101168.47;;;0.63;100.00
59103;BME280;43999;51.660;5.616;2023-03-15T03:42:57;101173.63;;;0.61;100.00
59103;BME280;43999;51.660;5.616;2023-03-15T03:45:29;101178.81;;;0.58;100.00
59103;BME280;43999;51.660;5.616;2023-03-15T03:47:58;101180.56;;;0.56;100.00
59103;BME280;43999;51.660;5.616;2023-03-15T03:50:27;101193.47;;;0.55;100.00
59103;BME280;43999;51.660;5.616;2023-03-15T03:52:56;101182.28;;;0.52;100.00
59103;BME280;43999;51.660;5.616;2023-03-15T03:55:29;101189.19;;;0.52;100.00
59103;BME280;43999;51.660;5.616;2023-03-15T03:58:01;101187.47;;;0.51;100.00
59103;BME280;43999;51.660;5.616;2023-03-15T04:00:52;101192.63;;;0.48;100.00
59103;BME280;43999;51.660;5.616;2023-03-15T04:03:25;101196.94;;;0.47;100.00
59103;BME280;43999;51.660;5.616;2023-03-15T04:06:10;101194.34;;;0.49;100.00
59103;BME280;43999;51.660;5.616;2023-03-15T04:08:41;101192.63;;;0.48;100.00
59103;BME280;43999;51.660;5.616;2023-03-15T04:11:13;101196.94;;;0.47;100.00
59103;BME280;43999;51.660;5.616;2023-03-15T04:13:55;101199.53;;;0.46;100.00
59103;BME280;43999;51.660;5.616;2023-03-15T04:16:23;101209.00;;;0.47;100.00
59103;BME280;43999;51.660;5.616;2023-03-15T04:19:07;101211.56;;;0.45;100.00
59103;BME280;43999;51.660;5.616;2023-03-15T04:21:36;101210.69;;;0.46;100.00
59103;BME280;43999;51.660;5.616;2023-03-15T04:24:17;101216.72;;;0.47;100.00
59103;BME280;43999;51.660;5.616;2023-03-15T04:27:17;101232.19;;;0.48;100.00
59103;BME280;43999;51.660;5.616;2023-03-15T04:30:01;101237.31;;;0.51;100.00
59103;BME280;43999;51.660;5.616;2023-03-15T04:33:01;101245.03;;;0.56;100.00
59103;BME280;43999;51.660;5.616;2023-03-15T04:35:49;101239.84;;;0.59;100.00
59103;BME280;43999;51.660;5.616;2023-03-15T04:38:48;101232.97;;;0.61;100.00
59103;BME280;43999;51.660;5.616;2023-03-15T04:41:35;101245.88;;;0.58;100.00
59103;BME280;43999;51.660;5.616;2023-03-15T04:44:21;101252.75;;;0.58;100.00
59103;BME280;43999;51.660;5.616;2023-03-15T04:47:18;101250.19;;;0.56;100.00
59103;BME280;43999;51.660;5.616;2023-03-15T04:49:52;101252.78;;;0.55;100.00
59103;BME280;43999;51.660;5.616;2023-03-15T04:52:27;101257.94;;;0.53;100.00
59103;BME280;43999;51.660;5.616;2023-03-15T04:55:04;101253.63;;;0.52;100.00
59103;BME280;43999;51.660;5.616;2023-03-15T04:57:55;101259.66;;;0.48;100.00
59103;BME280;43999;51.660;5.616;2023-03-15T05:00:43;101269.97;;;0.48;100.00
59103;BME280;43999;51.660;5.616;2023-03-15T05:03:33;101266.56;;;0.46;100.00
59103;BME280;43999;51.660;5.616;2023-03-15T05:06:31;101278.63;;;0.45;100.00
59103;BME280;43999;51.660;5.616;2023-03-15T05:09:01;101284.63;;;0.44;100.00
59103;BME280;43999;51.660;5.616;2023-03-15T05:11:47;101280.31;;;0.42;100.00
59103;BME280;43999;51.660;5.616;2023-03-15T05:14:35;101278.63;;;0.41;100.00
59103;BME280;43999;51.660;5.616;2023-03-15T05:17:21;101278.66;;;0.39;100.00
59103;BME280;43999;51.660;5.616;2023-03-15T05:20:13;101275.19;;;0.37;100.00
59103;BME280;43999;51.660;5.616;2023-03-15T05:22:53;101287.22;;;0.37;100.00
59103;BME280;43999;51.660;5.616;2023-03-15T05:25:52;101288.97;;;0.36;100.00
59103;BME280;43999;51.660;5.616;2023-03-15T05:28:40;101299.28;;;0.34;100.00
59103;BME280;43999;51.660;5.616;2023-03-15T05:31:26;101295.84;;;0.32;100.00
59103;BME280;43999;51.660;5.616;2023-03-15T05:34:08;101300.16;;;0.32;100.00
59103;BME280;43999;51.660;5.616;2023-03-15T05:37:01;101289.00;;;0.30;100.00
59103;BME280;43999;51.660;5.616;2023-03-15T05:39:40;101301.00;;;0.29;100.00
59103;BME280;43999;51.660;5.616;2023-03-15T05:42:43;101309.63;;;0.28;100.00
59103;BME280;43999;51.660;5.616;2023-03-15T05:45:29;101308.75;;;0.26;100.00
59103;BME280;43999;51.660;5.616;2023-03-15T05:48:05;101311.31;;;0.26;100.00
59103;BME280;43999;51.660;5.616;2023-03-15T05:50:52;101325.94;;;0.26;100.00
59103;BME280;43999;51.660;5.616;2023-03-15T05:53:37;101334.53;;;0.23;100.00
59103;BME280;43999;51.660;5.616;2023-03-15T05:56:47;101331.97;;;0.22;100.00
59103;BME280;43999;51.660;5.616;2023-03-15T05:59:31;101331.13;;;0.20;100.00
59103;BME280;43999;51.660;5.616;2023-03-15T06:02:22;101342.28;;;0.18;100.00
59103;BME280;43999;51.660;5.616;2023-03-15T06:05:11;101344.84;;;0.20;100.00
59103;BME280;43999;51.660;5.616;2023-03-15T06:07:43;101351.72;;;0.23;100.00
59103;BME280;43999;51.660;5.616;2023-03-15T06:10:20;101357.72;;;0.25;100.00
59103;BME280;43999;51.660;5.616;2023-03-15T06:13:00;101356.03;;;0.27;100.00
59103;BME280;43999;51.660;5.616;2023-03-15T06:15:29;101349.13;;;0.27;100.00
59103;BME280;43999;51.660;5.616;2023-03-15T06:17:57;101354.31;;;0.26;100.00
59103;BME280;43999;51.660;5.616;2023-03-15T06:20:29;101368.03;;;0.26;100.00
59103;BME280;43999;51.660;5.616;2023-03-15T06:23:06;101362.88;;;0.26;100.00
59103;BME280;43999;51.660;5.616;2023-03-15T06:25:56;101369.75;;;0.30;100.00
59103;BME280;43999;51.660;5.616;2023-03-15T06:28:31;101373.16;;;0.37;100.00
59103;BME280;43999;51.660;5.616;2023-03-15T06:31:09;101376.59;;;0.45;100.00
59103;BME280;43999;51.660;5.616;2023-03-15T06:33:54;101388.56;;;0.56;100.00
59103;BME280;43999;51.660;5.616;2023-03-15T06:36:26;101394.56;;;0.68;100.00
59103;BME280;43999;51.660;5.616;2023-03-15T06:38:54;101394.50;;;0.82;100.00
59103;BME280;43999;51.660;5.616;2023-03-15T06:41:24;101396.13;;;0.99;100.00
59103;BME280;43999;51.660;5.616;2023-03-15T06:44:01;101399.53;;;1.09;100.00
59103;BME280;43999;51.660;5.616;2023-03-15T06:46:29;101403.78;;;1.14;100.00
59103;BME280;43999;51.660;5.616;2023-03-15T06:48:59;101418.38;;;1.23;100.00
59103;BME280;43999;51.660;5.616;2023-03-15T06:51:31;101415.72;;;1.35;100.00
59103;BME280;43999;51.660;5.616;2023-03-15T06:54:01;101413.91;;;1.45;100.00
59103;BME280;43999;51.660;5.616;2023-03-15T06:56:33;101427.59;;;1.58;100.00
59103;BME280;43999;51.660;5.616;2023-03-15T06:59:04;101438.72;;;1.71;100.00
59103;BME280;43999;51.660;5.616;2023-03-15T07:01:33;101442.91;;;1.84;100.00
59103;BME280;43999;51.660;5.616;2023-03-15T07:04:08;101446.22;;;2.02;100.00
59103;BME280;43999;51.660;5.616;2023-03-15T07:06:51;101444.34;;;2.18;100.00
59103;BME280;43999;51.660;5.616;2023-03-15T07:09:23;101456.25;;;2.36;100.00
59103;BME280;43999;51.660;5.616;2023-03-15T07:11:52;101448.31;;;2.54;100.00
59103;BME280;43999;51.660;5.616;2023-03-15T07:14:22;101462.75;;;2.72;100.00
59103;BME280;43999;51.660;5.616;2023-03-15T07:16:51;101474.66;;;2.90;100.00
59103;BME280;43999;51.660;5.616;2023-03-15T07:19:23;101476.16;;;3.05;100.00
59103;BME280;43999;51.660;5.616;2023-03-15T07:21:55;101474.41;;;3.10;100.00
59103;BME280;43999;51.660;5.616;2023-03-15T07:24:25;101481.25;;;3.13;100.00
59103;BME280;43999;51.660;5.616;2023-03-15T07:27:03;101489.03;;;3.13;100.00
59103;BME280;43999;51.660;5.616;2023-03-15T07:29:31;101496.78;;;3.14;100.00
59103;BME280;43999;51.660;5.616;2023-03-15T07:32:01;101491.47;;;3.23;100.00
59103;BME280;43999;51.660;5.616;2023-03-15T07:34:30;101504.38;;;3.28;100.00
59103;BME280;43999;51.660;5.616;2023-03-15T07:37:05;101506.91;;;3.33;100.00
59103;BME280;43999;51.660;5.616;2023-03-15T07:39:36;101509.44;;;3.37;100.00
59103;BME280;43999;51.660;5.616;2023-03-15T07:42:09;101509.28;;;3.50;100.00
59103;BME280;43999;51.660;5.616;2023-03-15T07:44:42;101508.31;;;3.57;100.00
59103;BME280;43999;51.660;5.616;2023-03-15T07:47:13;101510.84;;;3.62;100.00
59103;BME280;43999;51.660;5.616;2023-03-15T07:49:51;101511.59;;;3.68;100.00
59103;BME280;43999;51.660;5.616;2023-03-15T07:52:24;101508.03;;;3.77;100.00
59103;BME280;43999;51.660;5.616;2023-03-15T07:55:14;101514.81;;;3.86;100.00
59103;BME280;43999;51.660;5.616;2023-03-15T07:58:01;101539.91;;;3.84;100.00
59103;BME280;43999;51.660;5.616;2023-03-15T08:01:10;101539.28;;;3.68;100.00
59103;BME280;43999;51.660;5.616;2023-03-15T08:04:25;101544.63;;;3.54;100.00
59103;BME280;43999;51.660;5.616;2023-03-15T08:07:15;101544.84;;;3.37;100.00
59103;BME280;43999;51.660;5.616;2023-03-15T08:09:56;101553.63;;;3.25;100.00
59103;BME280;43999;51.660;5.616;2023-03-15T08:12:49;101560.66;;;3.14;100.00
59103;BME280;43999;51.660;5.616;2023-03-15T08:15:32;101560.78;;;3.04;100.00
59103;BME280;43999;51.660;5.616;2023-03-15T08:18:07;101563.44;;;2.97;100.00
59103;BME280;43999;51.660;5.616;2023-03-15T08:20:36;101565.25;;;2.90;100.00
59103;BME280;43999;51.660;5.616;2023-03-15T08:23:10;101576.44;;;2.91;100.00
59103;BME280;43999;51.660;5.616;2023-03-15T08:26:10;101572.16;;;2.88;100.00
59103;BME280;43999;51.660;5.616;2023-03-15T08:28:50;101572.16;;;2.86;100.00
59103;BME280;43999;51.660;5.616;2023-03-15T08:31:19;101580.81;;;2.85;100.00
59103;BME280;43999;51.660;5.616;2023-03-15T08:33:51;101583.44;;;2.84;100.00
59103;BME280;43999;51.660;5.616;2023-03-15T08:36:34;101587.69;;;2.86;100.00
59103;BME280;43999;51.660;5.616;2023-03-15T08:39:05;101583.41;;;2.85;100.00
59103;BME280;43999;51.660;5.616;2023-03-15T08:41:35;101598.06;;;2.86;100.00
59103;BME280;43999;51.660;5.616;2023-03-15T08:44:05;101598.94;;;2.87;100.00
59103;BME280;43999;51.660;5.616;2023-03-15T08:46:42;101593.75;;;2.89;100.00
59103;BME280;43999;51.660;5.616;2023-03-15T08:49:36;101594.56;;;2.92;100.00
59103;BME280;43999;51.660;5.616;2023-03-15T08:52:15;101602.31;;;2.92;100.00
59103;BME280;43999;51.660;5.616;2023-03-15T08:55:00;101608.34;;;2.94;100.00
59103;BME280;43999;51.660;5.616;2023-03-15T08:57:36;101611.78;;;2.96;100.00
59103;BME280;43999;51.660;5.616;2023-03-15T09:00:10;101616.94;;;2.98;100.00
59103;BME280;43999;51.660;5.616;2023-03-15T09:02:50;101613.41;;;3.03;100.00
59103;BME280;43999;51.660;5.616;2023-03-15T09:05:28;101613.38;;;3.07;100.00
59103;BME280;43999;51.660;5.616;2023-03-15T09:08:05;101622.03;;;3.09;100.00
59103;BME280;43999;51.660;5.616;2023-03-15T09:10:43;101618.53;;;3.11;100.00
59103;BME280;43999;51.660;5.616;2023-03-15T09:14:13;101618.50;;;3.14;100.00
59103;BME280;43999;51.660;5.616;2023-03-15T09:17:18;101624.50;;;3.19;100.00
59103;BME280;43999;51.660;5.616;2023-03-15T09:20:34;101625.28;;;3.26;100.00
59103;BME280;43999;51.660;5.616;2023-03-15T09:23:28;101620.88;;;3.33;100.00
59103;BME280;43999;51.660;5.616;2023-03-15T09:26:30;101609.59;;;3.40;100.00
59103;BME280;43999;51.660;5.616;2023-03-15T09:29:15;101620.72;;;3.48;100.00
59103;BME280;43999;51.660;5.616;2023-03-15T09:32:10;101624.94;;;3.57;100.00
59103;BME280;43999;51.660;5.616;2023-03-15T09:34:39;101622.28;;;3.63;100.00
59103;BME280;43999;51.660;5.616;2023-03-15T09:37:19;101629.09;;;3.72;100.00
59103;BME280;43999;51.660;5.616;2023-03-15T09:40:44;101622.09;;;3.77;100.00
59103;BME280;43999;51.660;5.616;2023-03-15T09:49:47;101638.09;;;4.07;100.00
59103;BME280;43999;51.660;5.616;2023-03-15T09:52:42;101627.53;;;4.21;100.00
59103;BME280;43999;51.660;5.616;2023-03-15T09:55:25;101635.13;;;4.35;100.00
59103;BME280;43999;51.660;5.616;2023-03-15T09:58:36;101636.66;;;4.48;100.00
59103;BME280;43999;51.660;5.616;2023-03-15T10:01:31;101631.34;;;4.56;100.00
59103;BME280;43999;51.660;5.616;2023-03-15T10:07:11;101644.91;;;4.72;100.00
59103;BME280;43999;51.660;5.616;2023-03-15T10:12:41;101647.00;;;5.02;100.00
59103;BME280;43999;51.660;5.616;2023-03-15T10:16:05;101640.53;;;5.25;100.00
59103;BME280;43999;51.660;5.616;2023-03-15T10:25:31;101648.38;;;5.67;100.00
59103;BME280;43999;51.660;5.616;2023-03-15T10:28:29;101651.41;;;5.88;100.00
59103;BME280;43999;51.660;5.616;2023-03-15T10:31:13;101641.56;;;6.02;100.00
59103;BME280;43999;51.660;5.616;2023-03-15T10:33:58;101649.13;;;6.13;100.00
59103;BME280;43999;51.660;5.616;2023-03-15T10:36:32;101646.47;;;6.16;100.00
59103;BME280;43999;51.660;5.616;2023-03-15T10:39:10;101650.63;;;6.25;100.00
59103;BME280;43999;51.660;5.616;2023-03-15T10:42:00;101648.78;;;6.28;100.00
59103;BME280;43999;51.660;5.616;2023-03-15T10:44:36;101648.69;;;6.33;100.00
59103;BME280;43999;51.660;5.616;2023-03-15T10:47:12;101645.22;;;6.34;100.00
59103;BME280;43999;51.660;5.616;2023-03-15T10:49:57;101649.53;;;6.35;100.00
59103;BME280;43999;51.660;5.616;2023-03-15T10:52:39;101653.81;;;6.36;100.00
59103;BME280;43999;51.660;5.616;2023-03-15T10:55:34;101653.63;;;6.80;100.00
59103;BME280;43999;51.660;5.616;2023-03-15T10:58:26;101655.13;;;7.86;100.00
59103;BME280;43999;51.660;5.616;2023-03-15T11:01:13;101664.06;;;8.90;100.00
59103;BME280;43999;51.660;5.616;2023-03-15T11:10:00;101675.34;;;11.21;94.60
59103;BME280;43999;51.660;5.616;2023-03-15T11:12:34;101676.69;;;11.71;88.51
59103;BME280;43999;51.660;5.616;2023-03-15T11:15:13;101674.00;;;12.11;75.95
59103;BME280;43999;51.660;5.616;2023-03-15T11:17:55;101673.41;;;12.42;80.26
59103;BME280;43999;51.660;5.616;2023-03-15T11:20:43;101685.34;;;12.49;77.11
59103;BME280;43999;51.660;5.616;2023-03-15T11:23:25;101673.53;;;12.93;64.51
59103;BME280;43999;51.660;5.616;2023-03-15T11:25:54;101673.19;;;13.52;65.82
59103;BME280;43999;51.660;5.616;2023-03-15T11:28:27;101693.97;;;13.40;73.97
59103;BME280;43999;51.660;5.616;2023-03-15T11:30:59;101697.31;;;15.18;54.15
59103;BME280;43999;51.660;5.616;2023-03-15T11:36:44;101692.19;;;13.06;62.23
59103;BME280;43999;51.660;5.616;2023-03-15T11:39:55;101693.69;;;12.02;59.44
59103;BME280;43999;51.660;5.616;2023-03-15T11:42:52;101689.81;;;11.11;63.40
59103;BME280;43999;51.660;5.616;2023-03-15T11:46:05;101673.16;;;10.49;64.92
59103;BME280;43999;51.660;5.616;2023-03-15T11:49:02;101680.91;;;10.72;68.47
59103;BME280;43999;51.660;5.616;2023-03-15T11:51:54;101679.09;;;10.95;68.61
59103;BME280;43999;51.660;5.616;2023-03-15T11:54:30;101673.34;;;11.68;69.85
59103;BME280;43999;51.660;5.616;2023-03-15T11:57:37;101682.78;;;12.48;67.74
59103;BME280;43999;51.660;5.616;2023-03-15T12:02:58;101674.50;;;12.38;62.09
59103;BME280;43999;51.660;5.616;2023-03-15T12:05:48;101669.88;;;11.86;62.58
59103;BME280;43999;51.660;5.616;2023-03-15T12:08:45;101660.13;;;12.09;59.03
59103;BME280;43999;51.660;5.616;2023-03-15T12:16:36;101672.84;;;13.07;56.83
59103;BME280;43999;51.660;5.616;2023-03-15T12:19:18;101660.28;;;13.30;56.05
59103;BME280;43999;51.660;5.616;2023-03-15T12:22:02;101660.25;;;13.47;55.01
59103;BME280;43999;51.660;5.616;2023-03-15T12:24:35;101664.53;;;13.50;54.84
59103;BME280;43999;51.660;5.616;2023-03-15T12:27:19;101673.00;;;13.39;54.16
59103;BME280;43999;51.660;5.616;2023-03-15T12:29:48;101669.00;;;13.48;54.01
59103;BME280;43999;51.660;5.616;2023-03-15T12:33:01;101675.34;;;13.61;49.71
59103;BME280;43999;51.660;5.616;2023-03-15T12:35:40;101666.91;;;13.54;49.26
59103;BME280;43999;51.660;5.616;2023-03-15T12:38:22;101669.78;;;13.50;50.71
59103;BME280;43999;51.660;5.616;2023-03-15T12:41:53;101671.81;;;13.27;50.68
59103;BME280;43999;51.660;5.616;2023-03-15T12:44:41;101667.63;;;13.23;46.06
59103;BME280;43999;51.660;5.616;2023-03-15T12:47:11;101667.59;;;12.89;47.37
59103;BME280;43999;51.660;5.616;2023-03-15T12:49:45;101663.91;;;12.40;48.17
59103;BME280;43999;51.660;5.616;2023-03-15T12:52:37;101665.22;;;11.93;47.57
59103;BME280;43999;51.660;5.616;2023-03-15T12:55:18;101668.72;;;11.93;49.91
59103;BME280;43999;51.660;5.616;2023-03-15T12:57:59;101667.41;;;12.21;49.42
59103;BME280;43999;51.660;5.616;2023-03-15T13:00:44;101669.53;;;12.86;52.14
59103;BME280;43999;51.660;5.616;2023-03-15T13:03:39;101662.91;;;13.30;44.25
59103;BME280;43999;51.660;5.616;2023-03-15T13:06:53;101673.00;;;13.04;43.46
59103;BME280;43999;51.660;5.616;2023-03-15T13:16:16;101666.84;;;13.21;44.43
59103;BME280;43999;51.660;5.616;2023-03-15T13:19:21;101661.84;;;13.16;43.31
59103;BME280;43999;51.660;5.616;2023-03-15T13:25:13;101672.13;;;13.38;42.25
59103;BME280;43999;51.660;5.616;2023-03-15T13:30:50;101668.41;;;13.76;44.05
59103;BME280;43999;51.660;5.616;2023-03-15T13:33:26;101656.78;;;13.96;44.17
59103;BME280;43999;51.660;5.616;2023-03-15T13:36:02;101659.25;;;13.99;40.11
59103;BME280;43999;51.660;5.616;2023-03-15T13:41:37;101647.31;;;13.92;39.91
59103;BME280;43999;51.660;5.616;2023-03-15T13:44:19;101643.53;;;13.48;40.34
59103;BME280;43999;51.660;5.616;2023-03-15T13:46:51;101656.56;;;13.34;40.49
59103;BME280;43999;51.660;5.616;2023-03-15T13:49:24;101653.34;;;13.11;42.02
59103;BME280;43999;51.660;5.616;2023-03-15T13:52:11;101664.75;;;13.27;43.33
59103;BME280;43999;51.660;5.616;2023-03-15T13:54:44;101672.66;;;13.27;41.95
59103;BME280;43999;51.660;5.616;2023-03-15T13:57:19;101662.59;;;13.18;44.35
59103;BME280;43999;51.660;5.616;2023-03-15T14:00:09;101660.44;;;13.26;41.33
59103;BME280;43999;51.660;5.616;2023-03-15T14:05:19;101672.84;;;13.07;43.33
59103;BME280;43999;51.660;5.616;2023-03-15T14:08:30;101655.91;;;12.95;43.41
59103;BME280;43999;51.660;5.616;2023-03-15T14:11:11;101665.09;;;13.04;43.50
59103;BME280;43999;51.660;5.616;2023-03-15T14:13:55;101667.97;;;13.17;42.18
59103;BME280;43999;51.660;5.616;2023-03-15T14:16:43;101669.25;;;13.25;42.81
59103;BME280;43999;51.660;5.616;2023-03-15T14:19:29;101671.66;;;13.30;40.00
59103;BME280;43999;51.660;5.616;2023-03-15T14:22:11;101670.44;;;13.37;40.73
59103;BME280;43999;51.660;5.616;2023-03-15T14:25:21;101666.13;;;13.52;40.02
59103;BME280;43999;51.660;5.616;2023-03-15T14:27:49;101667.09;;;13.67;40.27
59103;BME280;43999;51.660;5.616;2023-03-15T14:30:21;101673.50;;;13.79;38.82
59103;BME280;43999;51.660;5.616;2023-03-15T14:33:02;101665.78;;;13.92;38.42
59103;BME280;43999;51.660;5.616;2023-03-15T14:35:42;101676.91;;;13.97;40.57
59103;BME280;43999;51.660;5.616;2023-03-15T14:38:34;101681.06;;;14.01;38.44
59103;BME280;43999;51.660;5.616;2023-03-15T14:41:31;101678.09;;;14.07;39.11
59103;BME280;43999;51.660;5.616;2023-03-15T14:44:07;101680.81;;;14.06;39.11
59103;BME280;43999;51.660;5.616;2023-03-15T14:46:54;101683.28;;;13.93;38.31
59103;BME280;43999;51.660;5.616;2023-03-15T14:49:38;101682.31;;;13.62;38.66
59103;BME280;43999;51.660;5.616;2023-03-15T14:52:13;101683.75;;;13.34;40.01
59103;BME280;43999;51.660;5.616;2023-03-15T14:54:47;101672.00;;;12.89;39.71